sensor_id;sensor_type;location;lat;lon;timestamp;P1;durP1;ratioP1;P2;durP2;ratioP2
18748;SDS011;9503;53.560;10.246;2023-12-20T00:01:07;14.93;;;2.37;;
18748;SDS011;9503;53.560;10.246;2023-12-20T00:03:33;14.67;;;2.73;;
18748;SDS011;9503;53.560;10.246;2023-12-20T00:06:00;14.97;;;2.87;;
18748;SDS011;9503;53.560;10.246;2023-12-20T00:08:27;11.37;;;2.53;;
18748;SDS011;9503;53.560;10.246;2023-12-20T00:10:53;9.30;;;2.03;;
18748;SDS011;9503;53.560;10.246;2023-12-20T00:13:21;15.47;;;3.27;;
18748;SDS011;9503;53.560;10.246;2023-12-20T00:15:48;11.57;;;2.30;;
18748;SDS011;9503;53.560;10.246;2023-12-20T00:18:14;17.43;;;3.53;;
18748;SDS011;9503;53.560;10.246;2023-12-20T00:20:41;6.73;;;2.30;;
18748;SDS011;9503;53.560;10.246;2023-12-20T00:23:08;8.27;;;2.97;;
18748;SDS011;9503;53.560;10.246;2023-12-20T00:25:34;15.13;;;2.87;;
18748;SDS011;9503;53.560;10.246;2023-12-20T00:28:01;8.23;;;2.60;;
18748;SDS011;9503;53.560;10.246;2023-12-20T00:30:29;14.90;;;3.27;;
18748;SDS011;9503;53.560;10.246;2023-12-20T00:32:56;15.63;;;2.70;;
18748;SDS011;9503;53.560;10.246;2023-12-20T00:35:23;15.70;;;2.30;;
18748;SDS011;9503;53.560;10.246;2023-12-20T00:37:49;19.77;;;3.30;;
18748;SDS011;9503;53.560;10.246;2023-12-20T00:40:16;15.43;;;2.53;;
18748;SDS011;9503;53.560;10.246;2023-12-20T00:42:43;22.80;;;2.87;;
18748;SDS011;9503;53.560;10.246;2023-12-20T00:45:11;9.33;;;2.00;;
18748;SDS011;9503;53.560;10.246;2023-12-20T00:47:40;14.60;;;2.90;;
18748;SDS011;9503;53.560;10.246;2023-12-20T00:50:07;14.97;;;2.63;;
18748;SDS011;9503;53.560;10.246;2023-12-20T00:52:34;17.17;;;3.77;;
18748;SDS011;9503;53.560;10.246;2023-12-20T00:55:01;11.60;;;2.77;;
18748;SDS011;9503;53.560;10.246;2023-12-20T00:57:27;14.13;;;3.87;;
18748;SDS011;9503;53.560;10.246;2023-12-20T00:59:54;17.40;;;2.87;;
18748;SDS011;9503;53.560;10.246;2023-12-20T01:02:21;12.27;;;2.57;;
18748;SDS011;9503;53.560;10.246;2023-12-20T01:04:48;14.63;;;2.83;;
18748;SDS011;9503;53.560;10.246;2023-12-20T01:07:15;13.47;;;2.60;;
18748;SDS011;9503;53.560;10.246;2023-12-20T01:09:42;11.17;;;2.83;;
18748;SDS011;9503;53.560;10.246;2023-12-20T01:12:08;7.53;;;2.47;;
18748;SDS011;9503;53.560;10.246;2023-12-20T01:14:35;13.70;;;2.97;;
18748;SDS011;9503;53.560;10.246;2023-12-20T01:17:01;7.47;;;2.33;;
18748;SDS011;9503;53.560;10.246;2023-12-20T01:19:28;13.07;;;2.47;;
18748;SDS011;9503;53.560;10.246;2023-12-20T01:21:56;10.40;;;2.50;;
18748;SDS011;9503;53.560;10.246;2023-12-20T01:24:22;18.63;;;2.33;;
18748;SDS011;9503;53.560;10.246;2023-12-20T01:26:49;7.80;;;2.37;;
18748;SDS011;9503;53.560;10.246;2023-12-20T01:29:16;14.60;;;2.70;;
18748;SDS011;9503;53.560;10.246;2023-12-20T01:31:42;18.13;;;3.53;;
18748;SDS011;9503;53.560;10.246;2023-12-20T01:34:09;11.83;;;2.60;;
18748;SDS011;9503;53.560;10.246;2023-12-20T01:36:35;13.73;;;1.93;;
18748;SDS011;9503;53.560;10.246;2023-12-20T01:39:03;14.27;;;2.50;;
18748;SDS011;9503;53.560;10.246;2023-12-20T01:41:30;16.70;;;2.53;;
18748;SDS011;9503;53.560;10.246;2023-12-20T01:43:56;9.53;;;2.27;;
18748;SDS011;9503;53.560;10.246;2023-12-20T01:46:23;16.23;;;2.10;;
18748;SDS011;9503;53.560;10.246;2023-12-20T01:48:50;11.97;;;2.07;;
18748;SDS011;9503;53.560;10.246;2023-12-20T01:51:18;14.13;;;3.00;;
18748;SDS011;9503;53.560;10.246;2023-12-20T01:53:46;18.73;;;2.93;;
18748;SDS011;9503;53.560;10.246;2023-12-20T01:56:14;17.10;;;2.43;;
18748;SDS011;9503;53.560;10.246;2023-12-20T01:58:43;11.73;;;2.97;;
18748;SDS011;9503;53.560;10.246;2023-12-20T02:01:11;13.43;;;2.40;;
18748;SDS011;9503;53.560;10.246;2023-12-20T02:03:38;10.47;;;2.10;;
18748;SDS011;9503;53.560;10.246;2023-12-20T02:06:05;17.47;;;2.70;;
18748;SDS011;9503;53.560;10.246;2023-12-20T02:08:33;15.50;;;2.60;;
18748;SDS011;9503;53.560;10.246;2023-12-20T02:11:00;10.47;;;2.13;;
18748;SDS011;9503;53.560;10.246;2023-12-20T02:13:29;15.27;;;2.47;;
18748;SDS011;9503;53.560;10.246;2023-12-20T02:15:56;10.80;;;2.87;;
18748;SDS011;9503;53.560;10.246;2023-12-20T02:18:23;23.03;;;4.00;;
18748;SDS011;9503;53.560;10.246;2023-12-20T02:20:50;19.00;;;3.67;;
18748;SDS011;9503;53.560;10.246;2023-12-20T02:23:18;7.13;;;2.03;;
18748;SDS011;9503;53.560;10.246;2023-12-20T02:25:44;19.93;;;3.27;;
18748;SDS011;9503;53.560;10.246;2023-12-20T02:28:11;11.07;;;3.97;;
18748;SDS011;9503;53.560;10.246;2023-12-20T02:30:37;17.60;;;2.90;;
18748;SDS011;9503;53.560;10.246;2023-12-20T02:33:05;14.80;;;2.73;;
18748;SDS011;9503;53.560;10.246;2023-12-20T02:35:34;13.10;;;2.67;;
18748;SDS011;9503;53.560;10.246;2023-12-20T02:38:01;10.63;;;2.90;;
18748;SDS011;9503;53.560;10.246;2023-12-20T02:40:29;18.27;;;2.63;;
18748;SDS011;9503;53.560;10.246;2023-12-20T02:42:55;6.90;;;1.87;;
18748;SDS011;9503;53.560;10.246;2023-12-20T02:45:22;15.53;;;2.87;;
18748;SDS011;9503;53.560;10.246;2023-12-20T02:47:48;14.13;;;4.00;;
18748;SDS011;9503;53.560;10.246;2023-12-20T02:50:15;5.93;;;1.83;;
18748;SDS011;9503;53.560;10.246;2023-12-20T02:52:42;10.50;;;3.00;;
18748;SDS011;9503;53.560;10.246;2023-12-20T02:55:10;9.27;;;2.33;;
18748;SDS011;9503;53.560;10.246;2023-12-20T02:57:38;11.93;;;2.43;;
18748;SDS011;9503;53.560;10.246;2023-12-20T03:00:07;17.73;;;2.90;;
18748;SDS011;9503;53.560;10.246;2023-12-20T03:02:34;11.10;;;2.17;;
18748;SDS011;9503;53.560;10.246;2023-12-20T03:05:01;13.83;;;2.83;;
18748;SDS011;9503;53.560;10.246;2023-12-20T03:07:28;14.70;;;2.60;;
18748;SDS011;9503;53.560;10.246;2023-12-20T03:09:54;14.13;;;3.13;;
18748;SDS011;9503;53.560;10.246;2023-12-20T03:12:21;9.03;;;2.53;;
18748;SDS011;9503;53.560;10.246;2023-12-20T03:14:49;16.57;;;2.33;;
18748;SDS011;9503;53.560;10.246;2023-12-20T03:17:15;18.33;;;3.33;;
18748;SDS011;9503;53.560;10.246;2023-12-20T03:19:42;6.90;;;2.37;;
18748;SDS011;9503;53.560;10.246;2023-12-20T03:22:08;8.50;;;2.50;;
18748;SDS011;9503;53.560;10.246;2023-12-20T03:24:35;16.70;;;2.50;;
18748;SDS011;9503;53.560;10.246;2023-12-20T03:27:02;7.40;;;2.67;;
18748;SDS011;9503;53.560;10.246;2023-12-20T03:29:29;17.77;;;3.30;;
18748;SDS011;9503;53.560;10.246;2023-12-20T03:31:57;11.40;;;2.70;;
18748;SDS011;9503;53.560;10.246;2023-12-20T03:34:23;18.73;;;3.20;;
18748;SDS011;9503;53.560;10.246;2023-12-20T03:36:50;11.00;;;3.40;;
18748;SDS011;9503;53.560;10.246;2023-12-20T03:39:16;17.00;;;2.87;;
18748;SDS011;9503;53.560;10.246;2023-12-20T03:41:43;10.53;;;2.87;;
18748;SDS011;9503;53.560;10.246;2023-12-20T03:44:10;12.00;;;2.57;;
18748;SDS011;9503;53.560;10.246;2023-12-20T03:46:36;12.80;;;2.83;;
18748;SDS011;9503;53.560;10.246;2023-12-20T03:49:04;7.37;;;2.70;;
18748;SDS011;9503;53.560;10.246;2023-12-20T03:51:31;8.50;;;2.83;;
18748;SDS011;9503;53.560;10.246;2023-12-20T03:53:57;13.20;;;2.30;;
18748;SDS011;9503;53.560;10.246;2023-12-20T03:56:24;9.63;;;2.70;;
18748;SDS011;9503;53.560;10.246;2023-12-20T03:58:51;9.53;;;2.97;;
18748;SDS011;9503;53.560;10.246;2023-12-20T04:01:17;15.10;;;2.63;;
18748;SDS011;9503;53.560;10.246;2023-12-20T04:03:44;10.17;;;2.80;;
18748;SDS011;9503;53.560;10.246;2023-12-20T04:06:17;13.27;;;2.23;;
18748;SDS011;9503;53.560;10.246;2023-12-20T04:08:44;12.37;;;2.57;;
18748;SDS011;9503;53.560;10.246;2023-12-20T04:11:10;9.07;;;2.73;;
18748;SDS011;9503;53.560;10.246;2023-12-20T04:13:37;8.97;;;3.03;;
18748;SDS011;9503;53.560;10.246;2023-12-20T04:16:03;13.13;;;2.90;;
18748;SDS011;9503;53.560;10.246;2023-12-20T04:18:30;12.53;;;2.60;;
18748;SDS011;9503;53.560;10.246;2023-12-20T04:20:57;15.07;;;2.10;;
18748;SDS011;9503;53.560;10.246;2023-12-20T04:23:25;15.73;;;3.07;;
18748;SDS011;9503;53.560;10.246;2023-12-20T04:25:51;11.53;;;2.80;;
18748;SDS011;9503;53.560;10.246;2023-12-20T04:28:18;14.57;;;3.77;;
18748;SDS011;9503;53.560;10.246;2023-12-20T04:30:46;12.73;;;2.47;;
18748;SDS011;9503;53.560;10.246;2023-12-20T04:33:12;10.47;;;2.60;;
18748;SDS011;9503;53.560;10.246;2023-12-20T04:35:39;9.50;;;2.20;;
18748;SDS011;9503;53.560;10.246;2023-12-20T04:38:07;13.67;;;2.50;;
18748;SDS011;9503;53.560;10.246;2023-12-20T04:40:35;12.67;;;3.17;;
18748;SDS011;9503;53.560;10.246;2023-12-20T04:43:02;9.23;;;2.07;;
18748;SDS011;9503;53.560;10.246;2023-12-20T04:45:29;9.70;;;2.23;;
18748;SDS011;9503;53.560;10.246;2023-12-20T04:47:56;17.27;;;3.13;;
18748;SDS011;9503;53.560;10.246;2023-12-20T04:50:23;8.13;;;2.57;;
18748;SDS011;9503;53.560;10.246;2023-12-20T04:52:49;12.07;;;3.20;;
18748;SDS011;9503;53.560;10.246;2023-12-20T04:55:16;15.93;;;2.90;;
18748;SDS011;9503;53.560;10.246;2023-12-20T04:57:44;15.57;;;4.33;;
18748;SDS011;9503;53.560;10.246;2023-12-20T05:00:12;18.33;;;3.20;;
18748;SDS011;9503;53.560;10.246;2023-12-20T05:02:40;15.67;;;2.70;;
18748;SDS011;9503;53.560;10.246;2023-12-20T05:05:07;13.33;;;3.90;;
18748;SDS011;9503;53.560;10.246;2023-12-20T05:07:34;12.73;;;2.80;;
18748;SDS011;9503;53.560;10.246;2023-12-20T05:10:00;12.70;;;2.50;;
18748;SDS011;9503;53.560;10.246;2023-12-20T05:12:29;8.87;;;3.73;;
18748;SDS011;9503;53.560;10.246;2023-12-20T05:14:57;15.07;;;3.23;;
18748;SDS011;9503;53.560;10.246;2023-12-20T05:17:24;11.70;;;3.20;;
18748;SDS011;9503;53.560;10.246;2023-12-20T05:19:51;11.10;;;2.70;;
18748;SDS011;9503;53.560;10.246;2023-12-20T05:22:17;13.40;;;3.10;;
18748;SDS011;9503;53.560;10.246;2023-12-20T05:24:45;30.20;;;3.10;;
18748;SDS011;9503;53.560;10.246;2023-12-20T05:27:11;12.83;;;3.00;;
18748;SDS011;9503;53.560;10.246;2023-12-20T05:29:38;12.30;;;3.10;;
18748;SDS011;9503;53.560;10.246;2023-12-20T05:32:06;11.87;;;2.80;;
18748;SDS011;9503;53.560;10.246;2023-12-20T05:34:32;20.20;;;5.40;;
18748;SDS011;9503;53.560;10.246;2023-12-20T05:36:59;17.53;;;3.47;;
18748;SDS011;9503;53.560;10.246;2023-12-20T05:39:26;15.37;;;3.73;;
18748;SDS011;9503;53.560;10.246;2023-12-20T05:41:53;11.40;;;3.97;;
18748;SDS011;9503;53.560;10.246;2023-12-20T05:44:19;11.73;;;3.50;;
18748;SDS011;9503;53.560;10.246;2023-12-20T05:46:46;14.07;;;3.43;;
18748;SDS011;9503;53.560;10.246;2023-12-20T05:49:14;12.73;;;3.37;;
18748;SDS011;9503;53.560;10.246;2023-12-20T05:51:41;9.87;;;3.80;;
18748;SDS011;9503;53.560;10.246;2023-12-20T05:54:07;10.53;;;2.80;;
18748;SDS011;9503;53.560;10.246;2023-12-20T05:56:38;14.90;;;4.10;;
18748;SDS011;9503;53.560;10.246;2023-12-20T05:59:05;10.87;;;3.03;;
18748;SDS011;9503;53.560;10.246;2023-12-20T06:01:31;8.33;;;2.80;;
18748;SDS011;9503;53.560;10.246;2023-12-20T06:03:58;9.90;;;2.80;;
18748;SDS011;9503;53.560;10.246;2023-12-20T06:06:26;15.90;;;3.80;;
18748;SDS011;9503;53.560;10.246;2023-12-20T06:08:53;17.80;;;4.50;;
18748;SDS011;9503;53.560;10.246;2023-12-20T06:11:19;12.60;;;4.57;;
18748;SDS011;9503;53.560;10.246;2023-12-20T06:13:46;10.20;;;3.40;;
18748;SDS011;9503;53.560;10.246;2023-12-20T06:16:14;12.27;;;3.40;;
18748;SDS011;9503;53.560;10.246;2023-12-20T06:18:40;12.87;;;3.70;;
18748;SDS011;9503;53.560;10.246;2023-12-20T06:21:07;18.83;;;3.80;;
18748;SDS011;9503;53.560;10.246;2023-12-20T06:23:39;16.80;;;3.40;;
18748;SDS011;9503;53.560;10.246;2023-12-20T06:26:05;11.07;;;4.10;;
18748;SDS011;9503;53.560;10.246;2023-12-20T06:28:32;12.20;;;3.27;;
18748;SDS011;9503;53.560;10.246;2023-12-20T06:30:59;15.80;;;3.50;;
18748;SDS011;9503;53.560;10.246;2023-12-20T06:33:25;19.83;;;3.70;;
18748;SDS011;9503;53.560;10.246;2023-12-20T06:35:52;13.03;;;3.20;;
18748;SDS011;9503;53.560;10.246;2023-12-20T06:38:19;11.00;;;2.40;;
18748;SDS011;9503;53.560;10.246;2023-12-20T06:40:47;15.50;;;4.73;;
18748;SDS011;9503;53.560;10.246;2023-12-20T06:43:13;17.47;;;3.60;;
18748;SDS011;9503;53.560;10.246;2023-12-20T06:45:40;13.57;;;3.23;;
18748;SDS011;9503;53.560;10.246;2023-12-20T06:48:07;13.50;;;2.43;;
18748;SDS011;9503;53.560;10.246;2023-12-20T06:50:33;15.93;;;3.00;;
18748;SDS011;9503;53.560;10.246;2023-12-20T06:53:02;13.60;;;3.13;;
18748;SDS011;9503;53.560;10.246;2023-12-20T06:55:32;13.17;;;3.03;;
18748;SDS011;9503;53.560;10.246;2023-12-20T06:58:00;18.57;;;2.47;;
18748;SDS011;9503;53.560;10.246;2023-12-20T07:00:27;14.70;;;3.07;;
18748;SDS011;9503;53.560;10.246;2023-12-20T07:02:54;14.30;;;2.80;;
18748;SDS011;9503;53.560;10.246;2023-12-20T07:05:20;9.37;;;2.63;;
18748;SDS011;9503;53.560;10.246;2023-12-20T07:07:47;18.47;;;3.03;;
18748;SDS011;9503;53.560;10.246;2023-12-20T07:10:14;18.37;;;2.77;;
18748;SDS011;9503;53.560;10.246;2023-12-20T07:12:40;11.63;;;3.23;;
18748;SDS011;9503;53.560;10.246;2023-12-20T07:15:09;13.27;;;2.80;;
18748;SDS011;9503;53.560;10.246;2023-12-20T07:17:37;9.40;;;2.30;;
18748;SDS011;9503;53.560;10.246;2023-12-20T07:20:04;18.03;;;2.93;;
18748;SDS011;9503;53.560;10.246;2023-12-20T07:22:34;11.40;;;2.80;;
18748;SDS011;9503;53.560;10.246;2023-12-20T07:25:01;13.03;;;2.90;;
18748;SDS011;9503;53.560;10.246;2023-12-20T07:27:28;22.10;;;3.83;;
18748;SDS011;9503;53.560;10.246;2023-12-20T07:29:55;16.83;;;2.83;;
18748;SDS011;9503;53.560;10.246;2023-12-20T07:32:23;17.83;;;3.03;;
18748;SDS011;9503;53.560;10.246;2023-12-20T07:34:49;8.93;;;2.93;;
18748;SDS011;9503;53.560;10.246;2023-12-20T07:37:16;13.27;;;2.80;;
18748;SDS011;9503;53.560;10.246;2023-12-20T07:39:43;12.93;;;2.93;;
18748;SDS011;9503;53.560;10.246;2023-12-20T07:42:10;12.83;;;2.70;;
18748;SDS011;9503;53.560;10.246;2023-12-20T07:44:36;19.47;;;3.50;;
18748;SDS011;9503;53.560;10.246;2023-12-20T07:47:03;21.83;;;4.00;;
18748;SDS011;9503;53.560;10.246;2023-12-20T07:49:31;14.53;;;3.50;;
18748;SDS011;9503;53.560;10.246;2023-12-20T07:51:58;17.73;;;3.27;;
18748;SDS011;9503;53.560;10.246;2023-12-20T07:54:25;14.70;;;3.50;;
18748;SDS011;9503;53.560;10.246;2023-12-20T07:56:51;17.47;;;3.37;;
18748;SDS011;9503;53.560;10.246;2023-12-20T07:59:18;18.00;;;3.77;;
18748;SDS011;9503;53.560;10.246;2023-12-20T08:01:44;20.20;;;3.07;;
18748;SDS011;9503;53.560;10.246;2023-12-20T08:04:11;20.67;;;3.23;;
18748;SDS011;9503;53.560;10.246;2023-12-20T08:06:39;16.13;;;3.13;;
18748;SDS011;9503;53.560;10.246;2023-12-20T08:09:05;19.00;;;3.13;;
18748;SDS011;9503;53.560;10.246;2023-12-20T08:11:32;13.20;;;3.47;;
18748;SDS011;9503;53.560;10.246;2023-12-20T08:13:58;18.13;;;3.60;;
18748;SDS011;9503;53.560;10.246;2023-12-20T08:16:25;17.40;;;3.30;;
18748;SDS011;9503;53.560;10.246;2023-12-20T08:18:52;21.13;;;3.93;;
18748;SDS011;9503;53.560;10.246;2023-12-20T08:21:18;17.50;;;3.20;;
18748;SDS011;9503;53.560;10.246;2023-12-20T08:23:48;21.53;;;3.73;;
18748;SDS011;9503;53.560;10.246;2023-12-20T08:26:18;17.63;;;4.50;;
18748;SDS011;9503;53.560;10.246;2023-12-20T08:28:45;13.27;;;3.47;;
18748;SDS011;9503;53.560;10.246;2023-12-20T08:31:13;16.20;;;3.07;;
18748;SDS011;9503;53.560;10.246;2023-12-20T08:33:40;15.73;;;3.73;;
18748;SDS011;9503;53.560;10.246;2023-12-20T08:36:06;21.03;;;3.57;;
18748;SDS011;9503;53.560;10.246;2023-12-20T08:38:33;17.37;;;2.83;;
18748;SDS011;9503;53.560;10.246;2023-12-20T08:41:01;12.83;;;3.80;;
18748;SDS011;9503;53.560;10.246;2023-12-20T08:43:30;13.30;;;3.37;;
18748;SDS011;9503;53.560;10.246;2023-12-20T08:45:56;18.27;;;3.07;;
18748;SDS011;9503;53.560;10.246;2023-12-20T08:48:23;9.60;;;2.90;;
18748;SDS011;9503;53.560;10.246;2023-12-20T08:50:50;18.33;;;3.80;;
18748;SDS011;9503;53.560;10.246;2023-12-20T08:53:17;19.17;;;2.97;;
18748;SDS011;9503;53.560;10.246;2023-12-20T08:55:43;13.53;;;4.10;;
18748;SDS011;9503;53.560;10.246;2023-12-20T08:58:12;13.10;;;3.20;;
18748;SDS011;9503;53.560;10.246;2023-12-20T09:00:38;11.77;;;2.50;;
18748;SDS011;9503;53.560;10.246;2023-12-20T09:03:05;23.00;;;3.20;;
18748;SDS011;9503;53.560;10.246;2023-12-20T09:05:32;7.87;;;3.27;;
18748;SDS011;9503;53.560;10.246;2023-12-20T09:07:58;13.93;;;3.37;;
18748;SDS011;9503;53.560;10.246;2023-12-20T09:10:25;15.63;;;3.67;;
18748;SDS011;9503;53.560;10.246;2023-12-20T09:12:52;12.57;;;3.90;;
18748;SDS011;9503;53.560;10.246;2023-12-20T09:15:22;16.97;;;3.90;;
18748;SDS011;9503;53.560;10.246;2023-12-20T09:17:49;21.47;;;3.17;;
18748;SDS011;9503;53.560;10.246;2023-12-20T09:20:15;15.57;;;4.13;;
18748;SDS011;9503;53.560;10.246;2023-12-20T09:22:42;7.50;;;2.13;;
18748;SDS011;9503;53.560;10.246;2023-12-20T09:25:09;8.07;;;2.50;;
18748;SDS011;9503;53.560;10.246;2023-12-20T09:27:36;8.23;;;2.87;;
18748;SDS011;9503;53.560;10.246;2023-12-20T09:30:03;13.43;;;3.33;;
18748;SDS011;9503;53.560;10.246;2023-12-20T09:32:31;14.43;;;2.87;;
18748;SDS011;9503;53.560;10.246;2023-12-20T09:34:58;7.30;;;2.30;;
18748;SDS011;9503;53.560;10.246;2023-12-20T09:37:25;8.73;;;3.50;;
18748;SDS011;9503;53.560;10.246;2023-12-20T09:39:52;3.97;;;1.97;;
18748;SDS011;9503;53.560;10.246;2023-12-20T09:42:21;3.57;;;1.73;;
18748;SDS011;9503;53.560;10.246;2023-12-20T09:44:55;2.50;;;1.30;;
18748;SDS011;9503;53.560;10.246;2023-12-20T09:47:28;9.10;;;1.70;;
18748;SDS011;9503;53.560;10.246;2023-12-20T09:49:56;5.03;;;1.73;;
18748;SDS011;9503;53.560;10.246;2023-12-20T09:52:23;6.67;;;1.43;;
18748;SDS011;9503;53.560;10.246;2023-12-20T09:54:50;3.40;;;1.17;;
18748;SDS011;9503;53.560;10.246;2023-12-20T09:57:20;3.13;;;1.13;;
18748;SDS011;9503;53.560;10.246;2023-12-20T09:59:46;3.03;;;1.30;;
18748;SDS011;9503;53.560;10.246;2023-12-20T10:02:13;2.60;;;1.27;;
18748;SDS011;9503;53.560;10.246;2023-12-20T10:04:40;3.20;;;1.50;;
18748;SDS011;9503;53.560;10.246;2023-12-20T10:07:13;5.47;;;1.00;;
18748;SDS011;9503;53.560;10.246;2023-12-20T10:09:40;1.60;;;1.00;;
18748;SDS011;9503;53.560;10.246;2023-12-20T10:12:08;5.83;;;1.17;;
18748;SDS011;9503;53.560;10.246;2023-12-20T10:14:34;6.20;;;0.90;;
18748;SDS011;9503;53.560;10.246;2023-12-20T10:17:04;1.70;;;0.97;;
18748;SDS011;9503;53.560;10.246;2023-12-20T10:19:31;1.70;;;0.90;;
18748;SDS011;9503;53.560;10.246;2023-12-20T10:21:59;1.93;;;1.10;;
18748;SDS011;9503;53.560;10.246;2023-12-20T10:24:27;5.07;;;0.80;;
18748;SDS011;9503;53.560;10.246;2023-12-20T10:27:01;3.60;;;0.90;;
18748;SDS011;9503;53.560;10.246;2023-12-20T10:29:31;2.77;;;0.90;;
18748;SDS011;9503;53.560;10.246;2023-12-20T10:31:58;2.77;;;1.33;;
18748;SDS011;9503;53.560;10.246;2023-12-20T10:34:25;4.00;;;0.90;;
18748;SDS011;9503;53.560;10.246;2023-12-20T10:36:51;3.23;;;0.97;;
18748;SDS011;9503;53.560;10.246;2023-12-20T10:39:18;3.53;;;1.10;;
18748;SDS011;9503;53.560;10.246;2023-12-20T10:41:47;3.60;;;1.57;;
18748;SDS011;9503;53.560;10.246;2023-12-20T10:44:14;7.77;;;1.80;;
18748;SDS011;9503;53.560;10.246;2023-12-20T10:46:41;4.67;;;1.20;;
18748;SDS011;9503;53.560;10.246;2023-12-20T10:49:15;4.60;;;1.03;;
18748;SDS011;9503;53.560;10.246;2023-12-20T10:51:43;3.17;;;1.10;;
18748;SDS011;9503;53.560;10.246;2023-12-20T10:54:12;3.90;;;0.93;;
18748;SDS011;9503;53.560;10.246;2023-12-20T10:56:39;5.57;;;1.37;;
18748;SDS011;9503;53.560;10.246;2023-12-20T10:59:07;5.77;;;1.60;;
18748;SDS011;9503;53.560;10.246;2023-12-20T11:01:38;7.50;;;1.93;;
18748;SDS011;9503;53.560;10.246;2023-12-20T11:04:07;2.87;;;1.50;;
18748;SDS011;9503;53.560;10.246;2023-12-20T11:06:43;3.13;;;1.10;;
18748;SDS011;9503;53.560;10.246;2023-12-20T11:09:14;2.53;;;1.00;;
18748;SDS011;9503;53.560;10.246;2023-12-20T11:14:39;8.10;;;2.00;;
18748;SDS011;9503;53.560;10.246;2023-12-20T11:17:11;3.37;;;1.40;;
18748;SDS011;9503;53.560;10.246;2023-12-20T11:19:43;4.40;;;1.40;;
18748;SDS011;9503;53.560;10.246;2023-12-20T11:22:30;7.23;;;1.70;;
18748;SDS011;9503;53.560;10.246;2023-12-20T11:24:59;6.30;;;1.50;;
18748;SDS011;9503;53.560;10.246;2023-12-20T11:27:29;5.30;;;1.50;;
18748;SDS011;9503;53.560;10.246;2023-12-20T11:29:58;7.87;;;1.83;;
18748;SDS011;9503;53.560;10.246;2023-12-20T11:32:29;6.10;;;1.47;;
18748;SDS011;9503;53.560;10.246;2023-12-20T11:34:56;4.70;;;1.27;;
18748;SDS011;9503;53.560;10.246;2023-12-20T11:37:28;11.00;;;1.83;;
18748;SDS011;9503;53.560;10.246;2023-12-20T11:39:55;5.20;;;1.40;;
18748;SDS011;9503;53.560;10.246;2023-12-20T11:42:22;5.10;;;1.40;;
18748;SDS011;9503;53.560;10.246;2023-12-20T11:44:49;4.10;;;1.83;;
18748;SDS011;9503;53.560;10.246;2023-12-20T11:47:17;2.37;;;1.00;;
18748;SDS011;9503;53.560;10.246;2023-12-20T11:49:46;1.23;;;0.90;;
18748;SDS011;9503;53.560;10.246;2023-12-20T11:52:13;2.93;;;0.93;;
18748;SDS011;9503;53.560;10.246;2023-12-20T11:54:40;4.37;;;1.10;;
18748;SDS011;9503;53.560;10.246;2023-12-20T11:57:06;3.93;;;1.30;;
18748;SDS011;9503;53.560;10.246;2023-12-20T11:59:33;9.17;;;1.63;;
18748;SDS011;9503;53.560;10.246;2023-12-20T12:02:00;7.03;;;1.23;;
18748;SDS011;9503;53.560;10.246;2023-12-20T12:04:28;8.77;;;1.87;;
18748;SDS011;9503;53.560;10.246;2023-12-20T12:06:54;7.70;;;1.67;;
18748;SDS011;9503;53.560;10.246;2023-12-20T12:09:21;5.07;;;1.63;;
18748;SDS011;9503;53.560;10.246;2023-12-20T12:11:48;7.27;;;1.97;;
18748;SDS011;9503;53.560;10.246;2023-12-20T12:14:14;11.50;;;1.97;;
18748;SDS011;9503;53.560;10.246;2023-12-20T12:16:41;8.53;;;2.03;;
18748;SDS011;9503;53.560;10.246;2023-12-20T12:19:10;2.77;;;1.67;;
18748;SDS011;9503;53.560;10.246;2023-12-20T12:21:47;11.83;;;2.00;;
18748;SDS011;9503;53.560;10.246;2023-12-20T12:24:14;12.93;;;2.90;;
18748;SDS011;9503;53.560;10.246;2023-12-20T12:26:40;5.30;;;2.00;;
18748;SDS011;9503;53.560;10.246;2023-12-20T12:29:07;8.50;;;2.70;;
18748;SDS011;9503;53.560;10.246;2023-12-20T12:31:34;12.23;;;2.30;;
18748;SDS011;9503;53.560;10.246;2023-12-20T12:34:01;16.80;;;2.93;;
18748;SDS011;9503;53.560;10.246;2023-12-20T12:36:28;9.30;;;2.03;;
18748;SDS011;9503;53.560;10.246;2023-12-20T12:38:57;9.80;;;2.20;;
18748;SDS011;9503;53.560;10.246;2023-12-20T12:41:24;16.07;;;3.77;;
18748;SDS011;9503;53.560;10.246;2023-12-20T12:43:51;8.57;;;2.10;;
18748;SDS011;9503;53.560;10.246;2023-12-20T12:46:17;19.83;;;3.63;;
18748;SDS011;9503;53.560;10.246;2023-12-20T12:48:44;14.17;;;3.10;;
18748;SDS011;9503;53.560;10.246;2023-12-20T12:51:11;15.00;;;4.07;;
18748;SDS011;9503;53.560;10.246;2023-12-20T12:53:38;11.57;;;2.40;;
18748;SDS011;9503;53.560;10.246;2023-12-20T12:56:07;14.67;;;2.87;;
18748;SDS011;9503;53.560;10.246;2023-12-20T12:58:34;7.30;;;2.30;;
18748;SDS011;9503;53.560;10.246;2023-12-20T13:01:00;15.50;;;2.67;;
18748;SDS011;9503;53.560;10.246;2023-12-20T13:03:28;13.50;;;3.20;;
18748;SDS011;9503;53.560;10.246;2023-12-20T13:05:55;16.00;;;2.00;;
18748;SDS011;9503;53.560;10.246;2023-12-20T13:08:22;12.87;;;2.40;;
18748;SDS011;9503;53.560;10.246;2023-12-20T13:10:48;10.37;;;2.73;;
18748;SDS011;9503;53.560;10.246;2023-12-20T13:13:17;12.43;;;2.83;;
18748;SDS011;9503;53.560;10.246;2023-12-20T13:15:43;13.33;;;3.47;;
18748;SDS011;9503;53.560;10.246;2023-12-20T13:18:15;17.90;;;2.80;;
18748;SDS011;9503;53.560;10.246;2023-12-20T13:20:42;18.53;;;2.63;;
18748;SDS011;9503;53.560;10.246;2023-12-20T13:23:09;10.00;;;2.40;;
18748;SDS011;9503;53.560;10.246;2023-12-20T13:25:35;15.63;;;3.20;;
18748;SDS011;9503;53.560;10.246;2023-12-20T13:28:02;14.27;;;2.50;;
18748;SDS011;9503;53.560;10.246;2023-12-20T13:30:30;9.87;;;2.50;;
18748;SDS011;9503;53.560;10.246;2023-12-20T13:32:57;17.27;;;3.17;;
18748;SDS011;9503;53.560;10.246;2023-12-20T13:35:24;17.33;;;3.13;;
18748;SDS011;9503;53.560;10.246;2023-12-20T13:37:51;10.83;;;2.33;;
18748;SDS011;9503;53.560;10.246;2023-12-20T13:40:18;19.47;;;2.70;;
18748;SDS011;9503;53.560;10.246;2023-12-20T13:42:45;15.40;;;2.20;;
18748;SDS011;9503;53.560;10.246;2023-12-20T13:45:11;12.27;;;3.10;;
18748;SDS011;9503;53.560;10.246;2023-12-20T13:47:39;18.17;;;2.93;;
18748;SDS011;9503;53.560;10.246;2023-12-20T13:50:06;19.27;;;3.60;;
18748;SDS011;9503;53.560;10.246;2023-12-20T13:52:33;20.73;;;3.63;;
18748;SDS011;9503;53.560;10.246;2023-12-20T13:55:00;17.87;;;3.17;;
18748;SDS011;9503;53.560;10.246;2023-12-20T13:57:26;18.23;;;3.23;;
18748;SDS011;9503;53.560;10.246;2023-12-20T13:59:54;19.17;;;4.07;;
18748;SDS011;9503;53.560;10.246;2023-12-20T14:02:22;21.93;;;3.50;;
18748;SDS011;9503;53.560;10.246;2023-12-20T14:04:50;11.77;;;2.63;;
18748;SDS011;9503;53.560;10.246;2023-12-20T14:07:16;19.17;;;3.40;;
18748;SDS011;9503;53.560;10.246;2023-12-20T14:09:43;10.00;;;3.40;;
18748;SDS011;9503;53.560;10.246;2023-12-20T14:12:10;17.03;;;3.10;;
18748;SDS011;9503;53.560;10.246;2023-12-20T14:14:37;11.23;;;3.37;;
18748;SDS011;9503;53.560;10.246;2023-12-20T14:17:04;9.97;;;2.63;;
18748;SDS011;9503;53.560;10.246;2023-12-20T14:19:31;23.33;;;3.90;;
18748;SDS011;9503;53.560;10.246;2023-12-20T14:21:59;18.63;;;3.87;;
18748;SDS011;9503;53.560;10.246;2023-12-20T14:24:27;19.80;;;3.87;;
18748;SDS011;9503;53.560;10.246;2023-12-20T14:26:53;19.87;;;3.87;;
18748;SDS011;9503;53.560;10.246;2023-12-20T14:29:20;13.63;;;3.80;;
18748;SDS011;9503;53.560;10.246;2023-12-20T14:31:47;22.63;;;4.10;;
18748;SDS011;9503;53.560;10.246;2023-12-20T14:34:14;22.80;;;4.13;;
18748;SDS011;9503;53.560;10.246;2023-12-20T14:36:41;15.27;;;3.77;;
18748;SDS011;9503;53.560;10.246;2023-12-20T14:39:09;17.63;;;4.83;;
18748;SDS011;9503;53.560;10.246;2023-12-20T14:41:38;17.03;;;4.07;;